sensor_id;sensor_type;location;lat;lon;timestamp;temperature;humidity
8475;DHT22;4274;52.012;8.448;2023-04-15T00:00:27;5.20;99.90
8475;DHT22;4274;52.012;8.448;2023-04-15T00:02:53;5.20;99.90
8475;DHT22;4274;52.012;8.448;2023-04-15T00:05:19;5.10;99.90
8475;DHT22;4274;52.012;8.448;2023-04-15T00:07:45;5.10;99.90
8475;DHT22;4274;52.012;8.448;2023-04-15T00:10:12;5.10;99.90
8475;DHT22;4274;52.012;8.448;2023-04-15T00:12:37;5.10;99.90
8475;DHT22;4274;52.012;8.448;2023-04-15T00:15:03;5.10;99.90
8475;DHT22;4274;52.012;8.448;2023-04-15T00:17:29;5.20;99.90
8475;DHT22;4274;52.012;8.448;2023-04-15T00:19:55;5.20;99.90
8475;DHT22;4274;52.012;8.448;2023-04-15T00:22:20;5.20;99.90
8475;DHT22;4274;52.012;8.448;2023-04-15T00:24:47;5.20;99.90
8475;DHT22;4274;52.012;8.448;2023-04-15T00:27:12;5.20;99.90
8475;DHT22;4274;52.012;8.448;2023-04-15T00:29:38;5.30;99.90
8475;DHT22;4274;52.012;8.448;2023-04-15T00:32:03;5.30;99.90
8475;DHT22;4274;52.012;8.448;2023-04-15T00:34:29;5.30;99.90
8475;DHT22;4274;52.012;8.448;2023-04-15T00:36:54;5.40;99.90
8475;DHT22;4274;52.012;8.448;2023-04-15T00:39:21;5.40;99.90
8475;DHT22;4274;52.012;8.448;2023-04-15T00:41:47;5.50;99.90
8475;DHT22;4274;52.012;8.448;2023-04-15T00:44:13;5.70;99.90
8475;DHT22;4274;52.012;8.448;2023-04-15T00:46:39;5.70;99.90
8475;DHT22;4274;52.012;8.448;2023-04-15T00:49:06;5.80;99.90
8475;DHT22;4274;52.012;8.448;2023-04-15T00:51:35;5.90;99.90
8475;DHT22;4274;52.012;8.448;2023-04-15T00:54:02;5.90;99.90
8475;DHT22;4274;52.012;8.448;2023-04-15T00:56:28;6.00;99.90
8475;DHT22;4274;52.012;8.448;2023-04-15T00:58:55;6.00;99.90
8475;DHT22;4274;52.012;8.448;2023-04-15T01:01:21;6.00;99.90
8475;DHT22;4274;52.012;8.448;2023-04-15T01:03:49;6.10;99.90
8475;DHT22;4274;52.012;8.448;2023-04-15T01:06:15;6.10;99.90
8475;DHT22;4274;52.012;8.448;2023-04-15T01:08:42;6.10;99.90
8475;DHT22;4274;52.012;8.448;2023-04-15T01:11:08;6.00;99.90
8475;DHT22;4274;52.012;8.448;2023-04-15T01:13:35;6.00;99.90
8475;DHT22;4274;52.012;8.448;2023-04-15T01:16:01;6.00;99.90
8475;DHT22;4274;52.012;8.448;2023-04-15T01:18:28;6.00;99.90
8475;DHT22;4274;52.012;8.448;2023-04-15T01:20:54;5.90;99.90
8475;DHT22;4274;52.012;8.448;2023-04-15T01:23:20;5.90;99.90
8475;DHT22;4274;52.012;8.448;2023-04-15T01:25:48;6.00;99.90
8475;DHT22;4274;52.012;8.448;2023-04-15T01:28:14;6.00;99.90
8475;DHT22;4274;52.012;8.448;2023-04-15T01:30:40;6.00;99.90
8475;DHT22;4274;52.012;8.448;2023-04-15T01:33:06;6.00;99.90
8475;DHT22;4274;52.012;8.448;2023-04-15T01:35:32;6.00;99.90
8475;DHT22;4274;52.012;8.448;2023-04-15T01:38:05;6.00;99.90
8475;DHT22;4274;52.012;8.448;2023-04-15T01:40:32;5.90;99.90
8475;DHT22;4274;52.012;8.448;2023-04-15T01:42:58;5.90;99.90
8475;DHT22;4274;52.012;8.448;2023-04-15T01:45:23;5.90;99.90
8475;DHT22;4274;52.012;8.448;2023-04-15T01:47:49;5.80;99.90
8475;DHT22;4274;52.012;8.448;2023-04-15T01:50:15;5.80;99.90
8475;DHT22;4274;52.012;8.448;2023-04-15T01:52:40;5.80;99.90
8475;DHT22;4274;52.012;8.448;2023-04-15T01:55:07;5.70;99.90
8475;DHT22;4274;52.012;8.448;2023-04-15T01:57:33;5.70;99.90
8475;DHT22;4274;52.012;8.448;2023-04-15T01:59:59;5.70;99.90
8475;DHT22;4274;52.012;8.448;2023-04-15T02:02:25;5.70;99.90
8475;DHT22;4274;52.012;8.448;2023-04-15T02:04:50;5.70;99.90
8475;DHT22;4274;52.012;8.448;2023-04-15T02:07:16;5.70;99.90
8475;DHT22;4274;52.012;8.448;2023-04-15T02:09:42;5.60;99.90
8475;DHT22;4274;52.012;8.448;2023-04-15T02:12:08;5.60;99.90
8475;DHT22;4274;52.012;8.448;2023-04-15T02:14:33;5.60;99.90
8475;DHT22;4274;52.012;8.448;2023-04-15T02:16:59;5.50;99.90
8475;DHT22;4274;52.012;8.448;2023-04-15T02:19:34;5.50;99.90
8475;DHT22;4274;52.012;8.448;2023-04-15T02:22:00;5.50;99.90
8475;DHT22;4274;52.012;8.448;2023-04-15T02:24:29;5.50;99.90
8475;DHT22;4274;52.012;8.448;2023-04-15T02:26:55;5.50;99.90
8475;DHT22;4274;52.012;8.448;2023-04-15T02:29:21;5.40;99.90
8475;DHT22;4274;52.012;8.448;2023-04-15T02:31:48;5.40;99.90
8475;DHT22;4274;52.012;8.448;2023-04-15T02:34:13;5.40;99.90
8475;DHT22;4274;52.012;8.448;2023-04-15T02:36:39;5.40;99.90
8475;DHT22;4274;52.012;8.448;2023-04-15T02:39:05;5.40;99.90
8475;DHT22;4274;52.012;8.448;2023-04-15T02:41:31;5.40;99.90
8475;DHT22;4274;52.012;8.448;2023-04-15T02:43:56;5.30;99.90
8475;DHT22;4274;52.012;8.448;2023-04-15T02:46:22;5.30;99.90
8475;DHT22;4274;52.012;8.448;2023-04-15T02:48:48;5.30;99.90
8475;DHT22;4274;52.012;8.448;2023-04-15T02:51:19;5.30;99.90
8475;DHT22;4274;52.012;8.448;2023-04-15T02:53:45;5.30;99.90
8475;DHT22;4274;52.012;8.448;2023-04-15T02:56:11;5.30;99.90
8475;DHT22;4274;52.012;8.448;2023-04-15T02:58:38;5.30;99.90
8475;DHT22;4274;52.012;8.448;2023-04-15T03:01:03;5.20;99.90
8475;DHT22;4274;52.012;8.448;2023-04-15T03:03:29;5.20;99.90
8475;DHT22;4274;52.012;8.448;2023-04-15T03:05:55;5.20;99.90
8475;DHT22;4274;52.012;8.448;2023-04-15T03:08:20;5.20;99.90
8475;DHT22;4274;52.012;8.448;2023-04-15T03:10:46;5.20;99.90
8475;DHT22;4274;52.012;8.448;2023-04-15T03:13:12;5.20;99.90
8475;DHT22;4274;52.012;8.448;2023-04-15T03:15:38;5.20;99.90
8475;DHT22;4274;52.012;8.448;2023-04-15T03:18:03;5.30;99.90
8475;DHT22;4274;52.012;8.448;2023-04-15T03:20:29;5.30;99.90
8475;DHT22;4274;52.012;8.448;2023-04-15T03:22:55;5.40;99.90
8475;DHT22;4274;52.012;8.448;2023-04-15T03:25:20;5.40;99.90
8475;DHT22;4274;52.012;8.448;2023-04-15T03:27:46;5.40;99.90
8475;DHT22;4274;52.012;8.448;2023-04-15T03:30:11;5.40;99.90
8475;DHT22;4274;52.012;8.448;2023-04-15T03:32:38;5.40;99.90
8475;DHT22;4274;52.012;8.448;2023-04-15T03:35:04;5.40;99.90
8475;DHT22;4274;52.012;8.448;2023-04-15T03:37:30;5.40;99.90
8475;DHT22;4274;52.012;8.448;2023-04-15T03:39:56;5.40;99.90
8475;DHT22;4274;52.012;8.448;2023-04-15T03:42:22;5.40;99.90
8475;DHT22;4274;52.012;8.448;2023-04-15T03:44:47;5.40;99.90
8475;DHT22;4274;52.012;8.448;2023-04-15T03:47:13;5.40;99.90
8475;DHT22;4274;52.012;8.448;2023-04-15T03:49:38;5.40;99.90
8475;DHT22;4274;52.012;8.448;2023-04-15T03:52:04;5.50;99.90
8475;DHT22;4274;52.012;8.448;2023-04-15T03:54:29;5.50;99.90
8475;DHT22;4274;52.012;8.448;2023-04-15T03:56:55;5.50;99.90
8475;DHT22;4274;52.012;8.448;2023-04-15T03:59:21;5.40;99.90
8475;DHT22;4274;52.012;8.448;2023-04-15T04:01:46;5.40;99.90
8475;DHT22;4274;52.012;8.448;2023-04-15T04:04:12;5.40;99.90
8475;DHT22;4274;52.012;8.448;2023-04-15T04:06:38;5.40;99.90
8475;DHT22;4274;52.012;8.448;2023-04-15T04:09:03;5.30;99.90
8475;DHT22;4274;52.012;8.448;2023-04-15T04:11:29;5.30;99.90
8475;DHT22;4274;52.012;8.448;2023-04-15T04:13:56;5.20;99.90
8475;DHT22;4274;52.012;8.448;2023-04-15T04:16:21;5.20;99.90
8475;DHT22;4274;52.012;8.448;2023-04-15T04:18:47;5.20;99.90
8475;DHT22;4274;52.012;8.448;2023-04-15T04:21:12;5.10;99.90
8475;DHT22;4274;52.012;8.448;2023-04-15T04:23:38;5.10;99.90
8475;DHT22;4274;52.012;8.448;2023-04-15T04:26:04;5.10;99.90
8475;DHT22;4274;52.012;8.448;2023-04-15T04:28:29;5.10;99.90
8475;DHT22;4274;52.012;8.448;2023-04-15T04:30:55;5.20;99.90
8475;DHT22;4274;52.012;8.448;2023-04-15T04:33:21;5.20;99.90
8475;DHT22;4274;52.012;8.448;2023-04-15T04:35:46;5.20;99.90
8475;DHT22;4274;52.012;8.448;2023-04-15T04:38:12;5.20;99.90
8475;DHT22;4274;52.012;8.448;2023-04-15T04:40:37;5.20;99.90
8475;DHT22;4274;52.012;8.448;2023-04-15T04:43:04;5.20;99.90
8475;DHT22;4274;52.012;8.448;2023-04-15T04:45:29;5.20;99.90
8475;DHT22;4274;52.012;8.448;2023-04-15T04:47:55;5.20;99.90
8475;DHT22;4274;52.012;8.448;2023-04-15T04:50:21;5.30;99.90
8475;DHT22;4274;52.012;8.448;2023-04-15T04:52:46;5.30;99.90
8475;DHT22;4274;52.012;8.448;2023-04-15T04:55:12;5.30;99.90
8475;DHT22;4274;52.012;8.448;2023-04-15T04:57:37;5.30;99.90
8475;DHT22;4274;52.012;8.448;2023-04-15T05:00:07;5.40;99.90
8475;DHT22;4274;52.012;8.448;2023-04-15T05:02:33;5.40;99.90
8475;DHT22;4274;52.012;8.448;2023-04-15T05:04:59;5.40;99.90
8475;DHT22;4274;52.012;8.448;2023-04-15T05:07:26;5.40;99.90
8475;DHT22;4274;52.012;8.448;2023-04-15T05:09:52;5.40;99.90
8475;DHT22;4274;52.012;8.448;2023-04-15T05:12:17;5.50;99.90
8475;DHT22;4274;52.012;8.448;2023-04-15T05:14:43;5.40;99.90
8475;DHT22;4274;52.012;8.448;2023-04-15T05:17:09;5.50;99.90
8475;DHT22;4274;52.012;8.448;2023-04-15T05:19:35;5.50;99.90
8475;DHT22;4274;52.012;8.448;2023-04-15T05:22:01;5.50;99.90
8475;DHT22;4274;52.012;8.448;2023-04-15T05:24:26;5.50;99.90
8475;DHT22;4274;52.012;8.448;2023-04-15T05:26:52;5.50;99.90
8475;DHT22;4274;52.012;8.448;2023-04-15T05:29:18;5.50;99.90
8475;DHT22;4274;52.012;8.448;2023-04-15T05:31:43;5.60;99.90
8475;DHT22;4274;52.012;8.448;2023-04-15T05:34:09;5.60;99.90
8475;DHT22;4274;52.012;8.448;2023-04-15T05:36:36;5.60;99.90
8475;DHT22;4274;52.012;8.448;2023-04-15T05:39:02;5.70;99.90
8475;DHT22;4274;52.012;8.448;2023-04-15T05:41:28;5.70;99.90
8475;DHT22;4274;52.012;8.448;2023-04-15T05:43:54;5.70;99.90
8475;DHT22;4274;52.012;8.448;2023-04-15T05:46:20;5.70;99.90
8475;DHT22;4274;52.012;8.448;2023-04-15T05:48:45;5.80;99.90
8475;DHT22;4274;52.012;8.448;2023-04-15T05:51:11;5.90;99.90
8475;DHT22;4274;52.012;8.448;2023-04-15T05:53:37;6.00;99.90
8475;DHT22;4274;52.012;8.448;2023-04-15T05:56:02;6.00;99.90
8475;DHT22;4274;52.012;8.448;2023-04-15T05:58:28;6.10;99.90
8475;DHT22;4274;52.012;8.448;2023-04-15T06:00:53;6.20;99.90
8475;DHT22;4274;52.012;8.448;2023-04-15T06:03:19;6.20;99.90
8475;DHT22;4274;52.012;8.448;2023-04-15T06:05:45;6.30;99.90
8475;DHT22;4274;52.012;8.448;2023-04-15T06:08:10;6.40;99.90
8475;DHT22;4274;52.012;8.448;2023-04-15T06:10:36;6.50;99.90
8475;DHT22;4274;52.012;8.448;2023-04-15T06:13:02;6.50;99.90
8475;DHT22;4274;52.012;8.448;2023-04-15T06:15:28;6.60;99.90
8475;DHT22;4274;52.012;8.448;2023-04-15T06:17:54;6.60;99.90
8475;DHT22;4274;52.012;8.448;2023-04-15T06:20:20;6.70;99.90
8475;DHT22;4274;52.012;8.448;2023-04-15T06:22:46;6.80;99.90
8475;DHT22;4274;52.012;8.448;2023-04-15T06:25:11;6.80;99.90
8475;DHT22;4274;52.012;8.448;2023-04-15T06:27:37;6.90;99.90
8475;DHT22;4274;52.012;8.448;2023-04-15T06:30:03;7.00;99.90
8475;DHT22;4274;52.012;8.448;2023-04-15T06:32:29;7.10;99.90
8475;DHT22;4274;52.012;8.448;2023-04-15T06:34:55;7.20;99.90
8475;DHT22;4274;52.012;8.448;2023-04-15T06:37:21;7.20;99.90
8475;DHT22;4274;52.012;8.448;2023-04-15T06:39:46;7.30;99.90
8475;DHT22;4274;52.012;8.448;2023-04-15T06:42:12;7.40;99.90
8475;DHT22;4274;52.012;8.448;2023-04-15T06:44:38;7.50;99.90
8475;DHT22;4274;52.012;8.448;2023-04-15T06:47:04;7.60;99.90
8475;DHT22;4274;52.012;8.448;2023-04-15T06:49:30;7.60;99.90
8475;DHT22;4274;52.012;8.448;2023-04-15T06:51:56;7.70;99.90
8475;DHT22;4274;52.012;8.448;2023-04-15T06:54:21;7.60;99.90
8475;DHT22;4274;52.012;8.448;2023-04-15T06:56:47;7.60;99.90
8475;DHT22;4274;52.012;8.448;2023-04-15T06:59:13;7.60;99.90
8475;DHT22;4274;52.012;8.448;2023-04-15T07:01:42;7.50;99.90
8475;DHT22;4274;52.012;8.448;2023-04-15T07:04:07;7.50;99.90
8475;DHT22;4274;52.012;8.448;2023-04-15T07:06:33;7.40;99.90
8475;DHT22;4274;52.012;8.448;2023-04-15T07:09:00;7.40;99.90
8475;DHT22;4274;52.012;8.448;2023-04-15T07:11:26;7.40;99.90
8475;DHT22;4274;52.012;8.448;2023-04-15T07:13:51;7.40;99.90
8475;DHT22;4274;52.012;8.448;2023-04-15T07:16:17;7.40;99.90
8475;DHT22;4274;52.012;8.448;2023-04-15T07:18:43;7.40;99.90
8475;DHT22;4274;52.012;8.448;2023-04-15T07:21:09;7.40;99.90
8475;DHT22;4274;52.012;8.448;2023-04-15T07:23:34;7.30;99.90
8475;DHT22;4274;52.012;8.448;2023-04-15T07:26:00;7.30;99.90
8475;DHT22;4274;52.012;8.448;2023-04-15T07:28:26;7.30;99.90
8475;DHT22;4274;52.012;8.448;2023-04-15T07:30:52;7.30;99.90
8475;DHT22;4274;52.012;8.448;2023-04-15T07:33:18;7.30;99.90
8475;DHT22;4274;52.012;8.448;2023-04-15T07:35:43;7.30;99.90
8475;DHT22;4274;52.012;8.448;2023-04-15T07:38:09;7.20;99.90
8475;DHT22;4274;52.012;8.448;2023-04-15T07:40:37;7.30;99.90
8475;DHT22;4274;52.012;8.448;2023-04-15T07:43:03;7.40;99.90
8475;DHT22;4274;52.012;8.448;2023-04-15T07:45:30;7.40;99.90
8475;DHT22;4274;52.012;8.448;2023-04-15T07:47:55;7.40;99.90
8475;DHT22;4274;52.012;8.448;2023-04-15T07:50:21;7.50;99.90
8475;DHT22;4274;52.012;8.448;2023-04-15T07:52:48;7.50;99.90
8475;DHT22;4274;52.012;8.448;2023-04-15T07:55:13;7.60;99.90
8475;DHT22;4274;52.012;8.448;2023-04-15T07:57:41;7.60;99.90
8475;DHT22;4274;52.012;8.448;2023-04-15T08:00:07;7.70;99.90
8475;DHT22;4274;52.012;8.448;2023-04-15T08:02:33;7.80;99.90
8475;DHT22;4274;52.012;8.448;2023-04-15T08:04:59;7.80;99.90
8475;DHT22;4274;52.012;8.448;2023-04-15T08:07:27;7.80;99.90
8475;DHT22;4274;52.012;8.448;2023-04-15T08:09:52;7.70;99.90
8475;DHT22;4274;52.012;8.448;2023-04-15T08:12:18;7.80;99.90
8475;DHT22;4274;52.012;8.448;2023-04-15T08:14:44;7.80;99.90
8475;DHT22;4274;52.012;8.448;2023-04-15T08:17:10;7.90;99.90
8475;DHT22;4274;52.012;8.448;2023-04-15T08:19:35;7.90;99.90
8475;DHT22;4274;52.012;8.448;2023-04-15T08:22:01;8.00;99.90
8475;DHT22;4274;52.012;8.448;2023-04-15T08:24:27;8.10;99.90
8475;DHT22;4274;52.012;8.448;2023-04-15T08:26:52;8.10;99.90
8475;DHT22;4274;52.012;8.448;2023-04-15T08:29:18;8.10;99.90
8475;DHT22;4274;52.012;8.448;2023-04-15T08:31:44;8.10;99.90
8475;DHT22;4274;52.012;8.448;2023-04-15T08:34:13;8.10;99.90
8475;DHT22;4274;52.012;8.448;2023-04-15T08:36:38;8.10;99.90
8475;DHT22;4274;52.012;8.448;2023-04-15T08:39:04;8.00;99.90
8475;DHT22;4274;52.012;8.448;2023-04-15T08:41:40;7.90;99.90
8475;DHT22;4274;52.012;8.448;2023-04-15T08:44:10;7.90;99.90
8475;DHT22;4274;52.012;8.448;2023-04-15T08:46:35;7.90;99.90
8475;DHT22;4274;52.012;8.448;2023-04-15T08:49:03;8.00;99.90
8475;DHT22;4274;52.012;8.448;2023-04-15T08:51:30;8.00;99.90
8475;DHT22;4274;52.012;8.448;2023-04-15T08:53:56;8.00;99.90
8475;DHT22;4274;52.012;8.448;2023-04-15T08:56:25;8.10;99.90
8475;DHT22;4274;52.012;8.448;2023-04-15T08:58:52;8.20;99.90
8475;DHT22;4274;52.012;8.448;2023-04-15T09:01:18;8.20;99.90
8475;DHT22;4274;52.012;8.448;2023-04-15T09:03:44;8.20;99.90
8475;DHT22;4274;52.012;8.448;2023-04-15T09:06:13;8.30;99.90
8475;DHT22;4274;52.012;8.448;2023-04-15T09:08:39;8.30;99.90
8475;DHT22;4274;52.012;8.448;2023-04-15T09:11:04;8.20;99.90
8475;DHT22;4274;52.012;8.448;2023-04-15T09:13:30;8.20;99.90
8475;DHT22;4274;52.012;8.448;2023-04-15T09:15:56;8.30;99.90
8475;DHT22;4274;52.012;8.448;2023-04-15T09:18:35;8.40;99.90
8475;DHT22;4274;52.012;8.448;2023-04-15T09:21:08;8.50;99.90
8475;DHT22;4274;52.012;8.448;2023-04-15T09:23:36;8.50;99.90
8475;DHT22;4274;52.012;8.448;2023-04-15T09:26:03;8.60;99.90
8475;DHT22;4274;52.012;8.448;2023-04-15T09:28:30;8.80;99.90
8475;DHT22;4274;52.012;8.448;2023-04-15T09:30:59;8.80;99.90
8475;DHT22;4274;52.012;8.448;2023-04-15T09:33:27;8.90;99.90
8475;DHT22;4274;52.012;8.448;2023-04-15T09:36:02;8.90;99.90
8475;DHT22;4274;52.012;8.448;2023-04-15T09:38:29;8.90;99.90
8475;DHT22;4274;52.012;8.448;2023-04-15T09:40:55;8.90;99.90
8475;DHT22;4274;52.012;8.448;2023-04-15T09:43:22;8.90;99.90
8475;DHT22;4274;52.012;8.448;2023-04-15T09:45:50;8.90;99.90
8475;DHT22;4274;52.012;8.448;2023-04-15T09:48:22;8.90;99.90
8475;DHT22;4274;52.012;8.448;2023-04-15T09:50:50;8.90;99.90
8475;DHT22;4274;52.012;8.448;2023-04-15T09:53:19;8.90;99.90
8475;DHT22;4274;52.012;8.448;2023-04-15T09:55:52;8.80;99.90
8475;DHT22;4274;52.012;8.448;2023-04-15T09:58:27;8.90;99.90
8475;DHT22;4274;52.012;8.448;2023-04-15T10:00:54;8.80;99.90
8475;DHT22;4274;52.012;8.448;2023-04-15T10:03:25;8.70;99.90
8475;DHT22;4274;52.012;8.448;2023-04-15T10:05:53;8.70;99.90
8475;DHT22;4274;52.012;8.448;2023-04-15T10:08:21;8.70;99.90
8475;DHT22;4274;52.012;8.448;2023-04-15T10:10:48;8.60;99.90
8475;DHT22;4274;52.012;8.448;2023-04-15T10:13:17;8.60;99.90
8475;DHT22;4274;52.012;8.448;2023-04-15T10:15:44;8.60;99.90
8475;DHT22;4274;52.012;8.448;2023-04-15T10:18:15;8.50;99.90
8475;DHT22;4274;52.012;8.448;2023-04-15T10:20:45;8.50;99.90
8475;DHT22;4274;52.012;8.448;2023-04-15T10:23:12;8.50;99.90
8475;DHT22;4274;52.012;8.448;2023-04-15T10:25:38;8.40;99.90
8475;DHT22;4274;52.012;8.448;2023-04-15T10:28:06;8.40;99.90
8475;DHT22;4274;52.012;8.448;2023-04-15T10:30:32;8.40;99.90
8475;DHT22;4274;52.012;8.448;2023-04-15T10:32:59;8.30;99.90
8475;DHT22;4274;52.012;8.448;2023-04-15T10:35:25;8.30;99.90
8475;DHT22;4274;52.012;8.448;2023-04-15T10:37:51;8.30;99.90
8475;DHT22;4274;52.012;8.448;2023-04-15T10:40:31;8.20;99.90
8475;DHT22;4274;52.012;8.448;2023-04-15T10:42:59;8.30;99.90
8475;DHT22;4274;52.012;8.448;2023-04-15T10:45:36;8.20;99.90
8475;DHT22;4274;52.012;8.448;2023-04-15T10:48:05;8.20;99.90
8475;DHT22;4274;52.012;8.448;2023-04-15T10:50:31;8.30;99.90
8475;DHT22;4274;52.012;8.448;2023-04-15T10:52:58;8.30;99.90
8475;DHT22;4274;52.012;8.448;2023-04-15T10:55:25;8.30;99.90
8475;DHT22;4274;52.012;8.448;2023-04-15T10:57:53;8.30;99.90
8475;DHT22;4274;52.012;8.448;2023-04-15T11:00:20;8.30;99.90
8475;DHT22;4274;52.012;8.448;2023-04-15T11:02:54;8.30;99.90
8475;DHT22;4274;52.012;8.448;2023-04-15T11:08:10;8.30;99.90
8475;DHT22;4274;52.012;8.448;2023-04-15T11:13:04;8.20;99.90
8475;DHT22;4274;52.012;8.448;2023-04-15T11:15:32;8.20;99.90
8475;DHT22;4274;52.012;8.448;2023-04-15T11:20:50;8.30;99.90
8475;DHT22;4274;52.012;8.448;2023-04-15T11:23:18;8.30;99.90
8475;DHT22;4274;52.012;8.448;2023-04-15T11:25:44;8.30;99.90
8475;DHT22;4274;52.012;8.448;2023-04-15T11:28:11;8.40;99.90
8475;DHT22;4274;52.012;8.448;2023-04-15T11:30:38;8.30;99.90
8475;DHT22;4274;52.012;8.448;2023-04-15T11:33:06;8.40;99.90
8475;DHT22;4274;52.012;8.448;2023-04-15T11:35:36;8.40;99.90
8475;DHT22;4274;52.012;8.448;2023-04-15T11:38:03;8.40;99.90
8475;DHT22;4274;52.012;8.448;2023-04-15T11:40:30;8.40;99.90
8475;DHT22;4274;52.012;8.448;2023-04-15T11:43:14;8.40;99.90
8475;DHT22;4274;52.012;8.448;2023-04-15T11:46:00;8.40;99.90
8475;DHT22;4274;52.012;8.448;2023-04-15T11:48:30;8.30;99.90
8475;DHT22;4274;52.012;8.448;2023-04-15T11:50:58;8.30;99.90
8475;DHT22;4274;52.012;8.448;2023-04-15T11:54:07;8.30;99.90
8475;DHT22;4274;52.012;8.448;2023-04-15T11:56:26;8.30;99.90
8475;DHT22;4274;52.012;8.448;2023-04-15T11:58:58;8.30;99.90
8475;DHT22;4274;52.012;8.448;2023-04-15T12:01:50;8.30;99.90
8475;DHT22;4274;52.012;8.448;2023-04-15T12:04:17;8.30;99.90
8475;DHT22;4274;52.012;8.448;2023-04-15T12:06:47;8.40;99.90
8475;DHT22;4274;52.012;8.448;2023-04-15T12:09:14;8.40;99.90
8475;DHT22;4274;52.012;8.448;2023-04-15T12:11:47;8.30;99.90
8475;DHT22;4274;52.012;8.448;2023-04-15T12:16:48;8.40;99.90
8475;DHT22;4274;52.012;8.448;2023-04-15T12:19:25;8.30;99.90
8475;DHT22;4274;52.012;8.448;2023-04-15T12:22:00;8.30;99.90
8475;DHT22;4274;52.012;8.448;2023-04-15T12:24:26;8.30;99.90
8475;DHT22;4274;52.012;8.448;2023-04-15T12:26:53;8.30;99.90
8475;DHT22;4274;52.012;8.448;2023-04-15T12:29:24;8.30;99.90
8475;DHT22;4274;52.012;8.448;2023-04-15T12:31:54;8.40;99.90
8475;DHT22;4274;52.012;8.448;2023-04-15T12:36:52;8.30;99.90
8475;DHT22;4274;52.012;8.448;2023-04-15T12:39:24;8.30;99.90
8475;DHT22;4274;52.012;8.448;2023-04-15T12:41:51;8.30;99.90
8475;DHT22;4274;52.012;8.448;2023-04-15T12:44:16;8.30;99.90
8475;DHT22;4274;52.012;8.448;2023-04-15T12:46:42;8.20;99.90
8475;DHT22;4274;52.012;8.448;2023-04-15T12:49:08;8.20;99.90
8475;DHT22;4274;52.012;8.448;2023-04-15T12:51:33;8.30;99.90
8475;DHT22;4274;52.012;8.448;2023-04-15T12:53:59;8.20;99.90
8475;DHT22;4274;52.012;8.448;2023-04-15T12:56:25;8.30;99.90
8475;DHT22;4274;52.012;8.448;2023-04-15T12:58:51;8.30;99.90
8475;DHT22;4274;52.012;8.448;2023-04-15T13:01:17;8.30;99.90
8475;DHT22;4274;52.012;8.448;2023-04-15T13:03:43;8.30;99.90
8475;DHT22;4274;52.012;8.448;2023-04-15T13:06:08;8.30;99.90
8475;DHT22;4274;52.012;8.448;2023-04-15T13:08:34;8.30;99.90
8475;DHT22;4274;52.012;8.448;2023-04-15T13:10:59;8.30;99.90
8475;DHT22;4274;52.012;8.448;2023-04-15T13:13:25;8.30;99.90
8475;DHT22;4274;52.012;8.448;2023-04-15T13:15:52;8.30;99.90
8475;DHT22;4274;52.012;8.448;2023-04-15T13:18:17;8.20;99.90
8475;DHT22;4274;52.012;8.448;2023-04-15T13:20:43;8.30;99.90
8475;DHT22;4274;52.012;8.448;2023-04-15T13:23:08;8.30;99.90
8475;DHT22;4274;52.012;8.448;2023-04-15T13:25:34;8.30;99.90
8475;DHT22;4274;52.012;8.448;2023-04-15T13:28:00;8.30;99.90
8475;DHT22;4274;52.012;8.448;2023-04-15T13:30:26;8.30;99.90
8475;DHT22;4274;52.012;8.448;2023-04-15T13:32:52;8.20;99.90
8475;DHT22;4274;52.012;8.448;2023-04-15T13:35:19;8.30;99.90
8475;DHT22;4274;52.012;8.448;2023-04-15T13:37:45;8.30;99.90
8475;DHT22;4274;52.012;8.448;2023-04-15T13:40:11;8.30;99.90
8475;DHT22;4274;52.012;8.448;2023-04-15T13:42:36;8.30;99.90
8475;DHT22;4274;52.012;8.448;2023-04-15T13:45:02;8.30;99.90
8475;DHT22;4274;52.012;8.448;2023-04-15T13:47:28;8.30;99.90
8475;DHT22;4274;52.012;8.448;2023-04-15T13:50:00;8.30;99.90
8475;DHT22;4274;52.012;8.448;2023-04-15T13:52:25;8.30;99.90
8475;DHT22;4274;52.012;8.448;2023-04-15T13:54:51;8.30;99.90
8475;DHT22;4274;52.012;8.448;2023-04-15T13:57:16;8.30;99.90
8475;DHT22;4274;52.012;8.448;2023-04-15T13:59:42;8.30;99.90
8475;DHT22;4274;52.012;8.448;2023-04-15T14:02:08;8.30;99.90
8475;DHT22;4274;52.012;8.448;2023-04-15T14:04:34;8.30;99.90
8475;DHT22;4274;52.012;8.448;2023-04-15T14:06:59;8.30;99.90
8475;DHT22;4274;52.012;8.448;2023-04-15T14:09:25;8.30;99.90
8475;DHT22;4274;52.012;8.448;2023-04-15T14:11:51;8.30;99.90
8475;DHT22;4274;52.012;8.448;2023-04-15T14:14:17;8.30;99.90
8475;DHT22;4274;52.012;8.448;2023-04-15T14:16:42;8.40;99.90
8475;DHT22;4274;52.012;8.448;2023-04-15T14:19:08;8.30;99.90
8475;DHT22;4274;52.012;8.448;2023-04-15T14:21:33;8.30;99.90
8475;DHT22;4274;52.012;8.448;2023-04-15T14:23:59;8.40;99.90
8475;DHT22;4274;52.012;8.448;2023-04-15T14:26:25;8.40;99.90
8475;DHT22;4274;52.012;8.448;2023-04-15T14:28:50;8.40;99.90
8475;DHT22;4274;52.012;8.448;2023-04-15T14:31:18;8.40;99.90
8475;DHT22;4274;52.012;8.448;2023-04-15T14:33:44;8.40;99.90
8475;DHT22;4274;52.012;8.448;2023-04-15T14:36:10;8.40;99.90
8475;DHT22;4274;52.012;8.448;2023-04-15T14:38:36;8.40;99.90
8475;DHT22;4274;52.012;8.448;2023-04-15T14:41:06;8.40;99.90
8475;DHT22;4274;52.012;8.448;2023-04-15T14:43:32;8.30;99.90
8475;DHT22;4274;52.012;8.448;2023-04-15T14:45:58;8.40;99.90
8475;DHT22;4274;52.012;8.448;2023-04-15T14:48:24;8.40;99.90
8475;DHT22;4274;52.012;8.448;2023-04-15T14:50:50;8.40;99.90
8475;DHT22;4274;52.012;8.448;2023-04-15T14:53:15;8.40;99.90
8475;DHT22;4274;52.012;8.448;2023-04-15T14:55:41;8.40;99.90
8475;DHT22;4274;52.012;8.448;2023-04-15T14:58:06;8.40;99.90
8475;DHT22;4274;52.012;8.448;2023-04-15T15:00:36;8.40;99.90
8475;DHT22;4274;52.012;8.448;2023-04-15T15:03:04;8.40;99.90
8475;DHT22;4274;52.012;8.448;2023-04-15T15:05:40;8.40;99.90
8475;DHT22;4274;52.012;8.448;2023-04-15T15:08:07;8.40;99.90
8475;DHT22;4274;52.012;8.448;2023-04-15T15:10:34;8.40;99.90
8475;DHT22;4274;52.012;8.448;2023-04-15T15:13:01;8.40;99.90
8475;DHT22;4274;52.012;8.448;2023-04-15T15:15:27;8.40;99.90
8475;DHT22;4274;52.012;8.448;2023-04-15T15:17:53;8.40;99.90
8475;DHT22;4274;52.012;8.448;2023-04-15T15:20:18;8.40;99.90
8475;DHT22;4274;52.012;8.448;2023-04-15T15:22:44;8.40;99.90
8475;DHT22;4274;52.012;8.448;2023-04-15T15:25:10;8.40;99.90
8475;DHT22;4274;52.012;8.448;2023-04-15T15:27:35;8.40;99.90
8475;DHT22;4274;52.012;8.448;2023-04-15T15:30:02;8.40;99.90
8475;DHT22;4274;52.012;8.448;2023-04-15T15:32:28;8.40;99.90
8475;DHT22;4274;52.012;8.448;2023-04-15T15:34:54;8.40;99.90
8475;DHT22;4274;52.012;8.448;2023-04-15T15:37:19;8.40;99.90
8475;DHT22;4274;52.012;8.448;2023-04-15T15:39:46;8.40;99.90
8475;DHT22;4274;52.012;8.448;2023-04-15T15:42:12;8.40;99.90
8475;DHT22;4274;52.012;8.448;2023-04-15T15:44:38;8.40;99.90
8475;DHT22;4274;52.012;8.448;2023-04-15T15:47:04;8.50;99.90
8475;DHT22;4274;52.012;8.448;2023-04-15T15:49:30;8.50;99.90
8475;DHT22;4274;52.012;8.448;2023-04-15T15:51:55;8.60;99.90
8475;DHT22;4274;52.012;8.448;2023-04-15T15:54:21;8.50;99.90
8475;DHT22;4274;52.012;8.448;2023-04-15T15:56:47;8.60;99.90
8475;DHT22;4274;52.012;8.448;2023-04-15T15:59:12;8.50;99.90
8475;DHT22;4274;52.012;8.448;2023-04-15T16:01:38;8.50;99.90
8475;DHT22;4274;52.012;8.448;2023-04-15T16:04:04;8.50;99.90
8475;DHT22;4274;52.012;8.448;2023-04-15T16:06:30;8.50;99.90
8475;DHT22;4274;52.012;8.448;2023-04-15T16:08:56;8.50;99.90
8475;DHT22;4274;52.012;8.448;2023-04-15T16:11:22;8.50;99.90
8475;DHT22;4274;52.012;8.448;2023-04-15T16:13:47;8.50;99.90
8475;DHT22;4274;52.012;8.448;2023-04-15T16:16:13;8.50;99.90
8475;DHT22;4274;52.012;8.448;2023-04-15T16:18:39;8.50;99.90
8475;DHT22;4274;52.012;8.448;2023-04-15T16:21:04;8.50;99.90
8475;DHT22;4274;52.012;8.448;2023-04-15T16:23:30;8.50;99.90
8475;DHT22;4274;52.012;8.448;2023-04-15T16:25:56;8.50;99.90